sensor_id;sensor_type;location;lat;lon;timestamp;P1;durP1;ratioP1;P2;durP2;ratioP2
62106;SDS011;48087;32.600;-97.100;2022-07-23T00:00:28;15;;;13;;
62106;SDS011;48087;32.600;-97.100;2022-07-23T00:22:59;16;;;14;;
62106;SDS011;48087;32.600;-97.100;2022-07-23T00:45:29;43;;;27;;
62106;SDS011;48087;32.600;-97.100;2022-07-23T01:07:57;13;;;12;;
62106;SDS011;48087;32.600;-97.100;2022-07-23T01:09:07;14;;;13;;
62106;SDS011;48087;32.600;-97.100;2022-07-23T01:31:34;13;;;12;;
62106;SDS011;48087;32.600;-97.100;2022-07-23T02:16:29;13;;;12;;
62106;SDS011;48087;32.600;-97.100;2022-07-23T02:38:56;13;;;12;;
62106;SDS011;48087;32.600;-97.100;2022-07-23T03:01:22;11;;;10;;
62106;SDS011;48087;32.600;-97.100;2022-07-23T03:23:48;14;;;13;;
62106;SDS011;48087;32.600;-97.100;2022-07-23T03:46:14;14;;;13;;
62106;SDS011;48087;32.600;-97.100;2022-07-23T04:08:40;13;;;12;;
62106;SDS011;48087;32.600;-97.100;2022-07-23T04:53:30;13;;;12;;
62106;SDS011;48087;32.600;-97.100;2022-07-23T05:15:56;14;;;13;;
62106;SDS011;48087;32.600;-97.100;2022-07-23T05:38:20;13;;;12;;
62106;SDS011;48087;32.600;-97.100;2022-07-23T06:00:45;14;;;13;;
62106;SDS011;48087;32.600;-97.100;2022-07-23T06:01:54;13;;;12;;
62106;SDS011;48087;32.600;-97.100;2022-07-23T06:24:19;14;;;13;;
62106;SDS011;48087;32.600;-97.100;2022-07-23T06:46:44;24;;;15;;
62106;SDS011;48087;32.600;-97.100;2022-07-23T07:09:08;14;;;13;;
62106;SDS011;48087;32.600;-97.100;2022-07-23T07:31:32;25;;;15;;
62106;SDS011;48087;32.600;-97.100;2022-07-23T07:55:07;26;;;16;;
62106;SDS011;48087;32.600;-97.100;2022-07-23T07:56:15;25;;;15;;
62106;SDS011;48087;32.600;-97.100;2022-07-23T08:18:39;25;;;15;;
62106;SDS011;48087;32.600;-97.100;2022-07-23T08:41:03;26;;;16;;
62106;SDS011;48087;32.600;-97.100;2022-07-23T09:03:28;26;;;16;;
62106;SDS011;48087;32.600;-97.100;2022-07-23T09:48:15;26;;;16;;
62106;SDS011;48087;32.600;-97.100;2022-07-23T10:10:38;28;;;17;;
62106;SDS011;48087;32.600;-97.100;2022-07-23T10:33:05;29;;;18;;
62106;SDS011;48087;32.600;-97.100;2022-07-23T10:55:41;29;;;18;;
62106;SDS011;48087;32.600;-97.100;2022-07-23T11:17:58;27;;;16;;
62106;SDS011;48087;32.600;-97.100;2022-07-23T11:40:12;27;;;16;;
62106;SDS011;48087;32.600;-97.100;2022-07-23T12:02:35;27;;;17;;
62106;SDS011;48087;32.600;-97.100;2022-07-23T12:24:59;27;;;16;;
62106;SDS011;48087;32.600;-97.100;2022-07-23T12:47:23;27;;;16;;
62106;SDS011;48087;32.600;-97.100;2022-07-23T13:09:48;26;;;16;;
62106;SDS011;48087;32.600;-97.100;2022-07-23T13:10:57;26;;;16;;
62106;SDS011;48087;32.600;-97.100;2022-07-23T13:33:23;26;;;16;;
62106;SDS011;48087;32.600;-97.100;2022-07-23T13:55:49;14;;;13;;
62106;SDS011;48087;32.600;-97.100;2022-07-23T14:19:25;14;;;13;;
62106;SDS011;48087;32.600;-97.100;2022-07-23T14:41:54;14;;;13;;
62106;SDS011;48087;32.600;-97.100;2022-07-23T15:04:25;11;;;10;;
62106;SDS011;48087;32.600;-97.100;2022-07-23T15:26:55;11;;;10;;
62106;SDS011;48087;32.600;-97.100;2022-07-23T15:49:27;10;;;9;;
62106;SDS011;48087;32.600;-97.100;2022-07-23T16:11:58;12;;;11;;
62106;SDS011;48087;32.600;-97.100;2022-07-23T16:34:29;11;;;10;;
62106;SDS011;48087;32.600;-97.100;2022-07-23T16:35:38;11;;;10;;
62106;SDS011;48087;32.600;-97.100;2022-07-23T16:58:10;11;;;10;;
62106;SDS011;48087;32.600;-97.100;2022-07-23T17:21:52;10;;;9;;
62106;SDS011;48087;32.600;-97.100;2022-07-23T17:44:26;11;;;10;;
62106;SDS011;48087;32.600;-97.100;2022-07-23T18:06:59;10;;;9;;
62106;SDS011;48087;32.600;-97.100;2022-07-23T18:30:41;10;;;9;;
62106;SDS011;48087;32.600;-97.100;2022-07-23T18:53:14;12;;;11;;
62106;SDS011;48087;32.600;-97.100;2022-07-23T19:15:48;11;;;10;;
62106;SDS011;48087;32.600;-97.100;2022-07-23T19:38:22;10;;;9;;
62106;SDS011;48087;32.600;-97.100;2022-07-23T20:00:57;9;;;8;;
62106;SDS011;48087;32.600;-97.100;2022-07-23T20:02:06;9;;;8;;
62106;SDS011;48087;32.600;-97.100;2022-07-23T20:24:40;10;;;9;;
62106;SDS011;48087;32.600;-97.100;2022-07-23T20:47:14;10;;;9;;
62106;SDS011;48087;32.600;-97.100;2022-07-23T21:09:49;9;;;8;;
62106;SDS011;48087;32.600;-97.100;2022-07-23T21:32:22;10;;;9;;
62106;SDS011;48087;32.600;-97.100;2022-07-23T21:33:31;8;;;7;;
62106;SDS011;48087;32.600;-97.100;2022-07-23T21:56:05;9;;;8;;
62106;SDS011;48087;32.600;-97.100;2022-07-23T22:18:38;8;;;7;;
62106;SDS011;48087;32.600;-97.100;2022-07-23T22:19:46;10;;;9;;
62106;SDS011;48087;32.600;-97.100;2022-07-23T22:42:19;8;;;7;;
62106;SDS011;48087;32.600;-97.100;2022-07-23T23:04:52;10;;;9;;
62106;SDS011;48087;32.600;-97.100;2022-07-23T23:27:24;8;;;7;;
62106;SDS011;48087;32.600;-97.100;2022-07-23T23:49:56;10;;;9;;
